Time;durP1;ratioP1;P1;durP2;ratioP2;P2;SDS_P1;SDS_P2;PMS_P1;PMS_P2;Temp;Humidity;BMP_temperature;BMP_pressure;BME280_temperature;BME280_humidity;BME280_pressure;Samples;Min_cycle;Max_cycle;Signal;HPM_P1;HPM_P2
2021/11/01 00:01:54;;;;;;;1.70;1.60;;;15.00;99.90;;;;;;4955429;28;20918;-74
2021/11/01 00:04:20;;;;;;;4.47;1.90;;;15.00;99.90;;;;;;4955217;28;20171;-75
2021/11/01 00:06:46;;;;;;;1.70;1.60;;;15.00;99.90;;;;;;4954535;28;20423;-74
2021/11/01 00:09:11;;;;;;;4.63;1.80;;;14.90;99.90;;;;;;4955331;28;20176;-75
2021/11/01 00:11:37;;;;;;;1.67;1.57;;;14.90;99.90;;;;;;4955373;28;20208;-75
2021/11/01 00:14:02;;;;;;;1.63;1.53;;;15.00;99.90;;;;;;4955049;28;20176;-75
2021/11/01 00:16:29;;;;;;;1.80;1.70;;;15.00;99.90;;;;;;4955154;28;20207;-75
2021/11/01 00:18:55;;;;;;;1.90;1.80;;;15.00;99.90;;;;;;4955115;28;20549;-75
2021/11/01 00:21:21;;;;;;;1.40;1.30;;;14.90;99.90;;;;;;4955010;28;20517;-75
2021/11/01 00:23:47;;;;;;;2.20;1.20;;;15.10;99.90;;;;;;4954916;28;20479;-74
2021/11/01 00:26:13;;;;;;;3.23;1.30;;;15.10;99.90;;;;;;4955086;28;20423;-75
2021/11/01 00:28:39;;;;;;;1.80;0.93;;;15.20;99.90;;;;;;4954908;28;20173;-74
2021/11/01 00:31:05;;;;;;;2.43;1.20;;;15.30;99.90;;;;;;4954947;28;20455;-75
2021/11/01 00:33:30;;;;;;;1.27;1.17;;;15.40;99.90;;;;;;4954526;28;20413;-74
2021/11/01 00:35:56;;;;;;;1.10;0.97;;;15.50;99.90;;;;;;4954946;28;20181;-75
2021/11/01 00:38:22;;;;;;;1.37;0.90;;;15.70;99.90;;;;;;4954624;29;20184;-74
2021/11/01 00:40:49;;;;;;;3.27;0.93;;;15.80;99.90;;;;;;4969808;28;20412;-74
2021/11/01 00:43:14;;;;;;;3.90;0.80;;;16.00;99.90;;;;;;4954464;28;20176;-75
2021/11/01 00:45:40;;;;;;;0.87;0.87;;;16.10;99.90;;;;;;4954716;28;20482;-75
2021/11/01 00:48:05;;;;;;;0.80;0.80;;;16.10;99.90;;;;;;4954749;28;20180;-75
2021/11/01 00:50:33;;;;;;;1.33;0.90;;;16.10;99.90;;;;;;4954549;28;20195;-74
2021/11/01 00:52:59;;;;;;;0.90;0.90;;;16.20;99.90;;;;;;4954233;28;20627;-75
2021/11/01 00:55:34;;;;;;;1.97;0.70;;;16.20;99.90;;;;;;4954417;28;20491;-75
2021/11/01 00:58:00;;;;;;;1.00;1.00;;;16.30;99.90;;;;;;4954449;28;20704;-75
2021/11/01 05:32:12;;;;;;;4.57;1.27;;;10.40;99.90;;;;;;5415632;23;20508;-75
2021/11/01 05:34:37;;;;;;;2.00;1.00;;;10.40;99.90;;;;;;4982151;28;20429;-73
2021/11/01 05:37:04;;;;;;;4.13;1.20;;;10.40;99.90;;;;;;4992323;28;20541;-73
2021/11/01 05:39:29;;;;;;;2.70;1.10;;;10.40;99.90;;;;;;4992444;28;20175;-73
2021/11/01 05:41:55;;;;;;;4.57;0.87;;;10.40;99.90;;;;;;4992460;28;20439;-73
2021/11/01 05:44:21;;;;;;;2.33;0.87;;;10.40;99.90;;;;;;4992080;28;20262;-73
2021/11/01 05:46:50;;;;;;;3.93;1.10;;;10.40;99.90;;;;;;4965062;28;20236;-73
2021/11/01 05:49:17;;;;;;;3.57;1.67;;;10.30;99.90;;;;;;4972879;28;20191;-73
2021/11/01 05:51:43;;;;;;;3.33;1.47;;;10.40;99.90;;;;;;4972930;28;20533;-73
2021/11/01 05:54:14;;;;;;;4.43;1.40;;;10.30;99.90;;;;;;4972634;28;20568;-73
2021/11/01 05:59:38;;;;;;;1.70;1.00;;;10.30;99.90;;;;;;4972560;28;20432;-73
2021/11/01 06:04:43;;;;;;;7.97;0.80;;;10.30;99.90;;;;;;4972882;28;20415;-73
2021/11/01 06:07:31;;;;;;;2.70;0.60;;;10.30;99.90;;;;;;4972838;28;20418;-71
2021/11/01 06:10:06;;;;;;;1.40;0.50;;;10.30;99.90;;;;;;4972894;28;20890;-70
2021/11/01 06:15:15;;;;;;;3.60;0.50;;;10.30;99.90;;;;;;4972872;28;20828;-70
2021/11/01 06:17:42;;;;;;;1.13;0.83;;;10.30;99.90;;;;;;4972514;28;20457;-70
2021/11/01 06:20:09;;;;;;;2.60;0.60;;;10.30;99.90;;;;;;4972580;28;20541;-70
2021/11/01 06:22:34;;;;;;;1.67;0.50;;;10.30;99.90;;;;;;4972244;28;20470;-70
2021/11/01 06:25:05;;;;;;;1.47;0.50;;;10.30;99.90;;;;;;4972661;28;20954;-69
2021/11/01 06:27:31;;;;;;;1.83;0.60;;;10.30;99.90;;;;;;4972542;28;20195;-70
2021/11/01 06:30:10;;;;;;;1.40;0.60;;;10.20;99.90;;;;;;4972582;28;20421;-70
2021/11/01 06:32:43;;;;;;;6.03;0.60;;;10.20;99.90;;;;;;4972094;28;20463;-69
2021/11/01 06:40:53;;;;;;;1.47;0.57;;;10.10;99.90;;;;;;4972821;28;20465;-70
2021/11/01 06:56:36;;;;;;;1.83;0.90;;;10.10;99.90;;;;;;4972195;28;20476;-70
2021/11/01 07:15:27;;;;;;;1.73;0.50;;;10.10;99.90;;;;;;4975751;28;20420;-70
2021/11/01 07:18:08;;;;;;;0.53;0.53;;;10.10;99.90;;;;;;4975610;28;20454;-71
2021/11/01 07:23:38;;;;;;;1.63;0.50;;;10.10;99.90;;;;;;4975321;28;20930;-70
2021/11/01 08:28:32;;;;;;;0.70;0.70;;;9.80;99.90;;;;;;4980921;28;20478;-73
2021/11/01 08:34:23;;;;;;;1.57;0.70;;;9.80;99.90;;;;;;4982881;28;20259;-70
2021/11/01 08:39:11;;;;;;;1.83;1.73;;;9.90;99.90;;;;;;4985899;28;20838;-71
2021/11/01 08:50:03;;;;;;;3.33;2.20;;;9.90;99.90;;;;;;4982586;28;20460;-70
2021/11/01 09:11:57;;;;;;;1.60;0.83;;;10.10;99.90;;;;;;4981896;28;20850;-70
2021/11/01 09:20:03;;;;;;;6.00;0.73;;;10.10;99.90;;;;;;4956653;28;20489;-70
2021/11/01 09:25:12;;;;;;;2.83;0.97;;;10.20;99.90;;;;;;4992439;28;20559;-70
2021/11/01 09:27:40;;;;;;;1.47;0.80;;;10.20;99.90;;;;;;4992184;28;20254;-70
2021/11/01 09:30:36;;;;;;;1.90;0.80;;;10.20;99.90;;;;;;4968633;28;20457;-70
2021/11/01 09:38:55;;;;;;;0.90;0.80;;;10.30;99.90;;;;;;4991876;28;20839;-70
2021/11/01 09:41:26;;;;;;;1.83;0.80;;;10.30;99.90;;;;;;4967918;28;20448;-70
2021/11/01 09:43:53;;;;;;;1.53;0.90;;;10.40;99.90;;;;;;4980287;28;20547;-71
2021/11/01 09:46:21;;;;;;;1.17;0.70;;;10.40;99.90;;;;;;4984572;28;20527;-70
2021/11/01 09:48:47;;;;;;;0.77;0.70;;;10.50;99.90;;;;;;4974944;28;20475;-70
2021/11/01 09:51:13;;;;;;;0.90;0.70;;;10.50;99.90;;;;;;4984323;28;20965;-70
2021/11/01 09:53:47;;;;;;;1.47;0.60;;;10.50;99.90;;;;;;4971983;28;20497;-70
2021/11/01 09:59:15;;;;;;;1.10;0.80;;;10.60;99.90;;;;;;4991836;28;21035;-69
2021/11/01 10:01:46;;;;;;;0.83;0.70;;;10.60;99.90;;;;;;4986879;28;20454;-70
2021/11/01 10:04:25;;;;;;;0.80;0.60;;;10.60;99.90;;;;;;4984556;28;20999;-70
2021/11/01 10:07:27;;;;;;;0.90;0.70;;;10.60;99.90;;;;;;4977958;28;20493;-70
2021/11/01 10:09:51;;;;;;;0.80;0.60;;;10.60;99.90;;;;;;4970261;28;20472;-70
2021/11/01 10:12:44;;;;;;;1.13;0.50;;;10.60;99.90;;;;;;4972433;28;20448;-70
2021/11/01 10:18:07;;;;;;;0.83;0.53;;;10.50;99.90;;;;;;4972399;28;20843;-71
2021/11/01 10:20:48;;;;;;;2.40;0.60;;;10.50;99.90;;;;;;4972628;28;20409;-70
2021/11/01 10:23:16;;;;;;;0.70;0.50;;;10.50;99.90;;;;;;4972185;28;20902;-70
2021/11/01 10:25:42;;;;;;;2.27;0.60;;;10.50;99.90;;;;;;4972663;28;20941;-72
2021/11/01 10:28:07;;;;;;;0.80;0.50;;;10.50;99.90;;;;;;4972379;28;20396;-70
2021/11/01 10:30:36;;;;;;;0.60;0.60;;;10.60;99.90;;;;;;4972535;28;20623;-70
2021/11/01 10:33:05;;;;;;;0.70;0.70;;;10.60;99.90;;;;;;4972307;28;20205;-72
2021/11/01 10:35:37;;;;;;;0.80;0.60;;;10.70;99.90;;;;;;4972571;28;20417;-71
2021/11/01 10:38:31;;;;;;;1.70;0.90;;;10.70;99.90;;;;;;4972283;28;20470;-71
2021/11/01 10:57:56;;;;;;;5.03;0.80;;;10.80;99.90;;;;;;4976103;28;20480;-69
2021/11/01 11:12:00;;;;;;;2.23;2.03;;;10.90;99.90;;;;;;4963853;28;20529;-72
2021/11/01 11:15:11;;;;;;;1.50;1.40;;;10.90;99.90;;;;;;4975625;28;20931;-73
2021/11/01 11:20:05;;;;;;;5.60;5.10;;;10.90;99.90;;;;;;4975789;28;20426;-73
2021/11/01 11:22:51;;;;;;;1.33;1.23;;;10.90;99.90;;;;;;4975322;28;20809;-72
2021/11/01 11:25:39;;;;;;;1.60;0.93;;;11.00;99.90;;;;;;4975529;28;20418;-70
2021/11/01 11:28:16;;;;;;;0.70;0.60;;;10.90;99.90;;;;;;4975320;28;20457;-68
2021/11/01 11:31:11;;;;;;;0.87;0.60;;;10.90;99.90;;;;;;4975427;28;20774;-70
2021/11/01 11:48:10;;;;;;;8.00;1.40;;;11.40;99.90;;;;;;4934413;29;20427;-70
2021/11/01 11:50:36;;;;;;;1.57;1.10;;;11.40;99.90;;;;;;4934452;29;20511;-71
2021/11/01 11:53:15;;;;;;;1.70;1.00;;;11.30;99.90;;;;;;4958161;28;20554;-68
2021/11/01 11:55:43;;;;;;;1.00;0.70;;;11.30;99.90;;;;;;4974719;28;20209;-74
2021/11/01 11:58:12;;;;;;;1.07;0.90;;;11.20;99.90;;;;;;4974666;28;20549;-72
2021/11/01 12:00:39;;;;;;;1.40;1.30;;;11.20;99.90;;;;;;4975007;28;20419;-72
2021/11/01 12:03:19;;;;;;;1.23;1.10;;;11.20;99.90;;;;;;4974499;28;20413;-72
2021/11/01 12:06:01;;;;;;;1.00;0.90;;;11.20;99.90;;;;;;4975002;28;20820;-73
2021/11/01 12:18:57;;;;;;;3.40;1.00;;;11.30;99.90;;;;;;4974587;28;20430;-73
2021/11/01 12:21:24;;;;;;;1.10;1.00;;;11.30;99.90;;;;;;4974407;28;20429;-73
2021/11/01 12:23:54;;;;;;;2.60;0.97;;;11.30;99.90;;;;;;4974199;28;20403;-73
2021/11/01 12:26:23;;;;;;;0.90;0.90;;;11.30;99.90;;;;;;4974464;28;20414;-73
2021/11/01 12:28:55;;;;;;;1.53;0.77;;;11.30;99.90;;;;;;4974399;28;20415;-73
2021/11/01 12:31:21;;;;;;;1.30;0.80;;;11.30;99.90;;;;;;4974068;28;20496;-72
2021/11/01 12:33:55;;;;;;;1.30;0.90;;;11.30;99.90;;;;;;4974024;28;20517;-72
2021/11/01 12:36:29;;;;;;;1.10;0.70;;;11.30;99.90;;;;;;4974113;28;20388;-72
2021/11/01 12:39:08;;;;;;;0.80;0.80;;;11.20;99.90;;;;;;4974211;28;20772;-72
2021/11/01 12:42:03;;;;;;;0.80;0.80;;;11.20;99.90;;;;;;4974321;28;20438;-74
2021/11/01 12:45:13;;;;;;;2.83;1.30;;;11.20;99.90;;;;;;4973847;28;20419;-70
2021/11/01 12:56:57;;;;;;;1.70;1.10;;;11.30;99.90;;;;;;4974076;28;20424;-71
2021/11/01 12:58:19;;;;;;;1.00;0.90;;;11.20;99.90;;;;;;4973538;28;20481;-72
2021/11/01 13:00:45;;;;;;;1.80;1.70;;;11.20;99.90;;;;;;4973878;28;20919;-69
2021/11/01 13:03:18;;;;;;;10.60;6.73;;;11.20;99.90;;;;;;4973480;28;20187;-71
2021/11/01 13:05:47;;;;;;;2.03;1.93;;;11.20;99.90;;;;;;4973734;28;20199;-70
2021/11/01 13:08:20;;;;;;;2.47;0.83;;;11.20;99.90;;;;;;4972980;28;20813;-72
2021/11/01 13:10:55;;;;;;;3.77;3.47;;;11.30;99.90;;;;;;4973719;28;20471;-71
2021/11/01 13:18:47;;;;;;;1.57;1.00;;;11.30;99.90;;;;;;4973772;28;20461;-72
2021/11/01 13:21:22;;;;;;;2.07;1.57;;;11.30;99.90;;;;;;4973284;28;20873;-71
2021/11/01 13:24:02;;;;;;;2.90;2.80;;;11.30;99.90;;;;;;4973205;28;20179;-71
2021/11/01 13:29:15;;;;;;;1.40;1.27;;;11.30;99.90;;;;;;4973442;28;20419;-71
2021/11/01 13:37:17;;;;;;;1.20;0.90;;;11.30;99.90;;;;;;4973331;28;20548;-71
2021/11/01 13:39:43;;;;;;;1.90;1.70;;;11.30;99.90;;;;;;4973167;28;20422;-71
2021/11/01 13:42:17;;;;;;;1.93;1.07;;;11.30;99.90;;;;;;4972642;28;20433;-69
2021/11/01 13:44:43;;;;;;;1.00;0.90;;;11.40;99.90;;;;;;4973170;28;20415;-71
2021/11/01 13:47:14;;;;;;;1.43;1.23;;;11.30;99.90;;;;;;4973046;28;20984;-71
2021/11/01 13:49:44;;;;;;;1.23;1.13;;;11.30;99.90;;;;;;4972958;28;20607;-71
2021/11/01 13:52:32;;;;;;;1.10;0.90;;;11.30;99.90;;;;;;4972465;28;20515;-70
2021/11/01 13:55:07;;;;;;;1.47;1.27;;;11.30;99.90;;;;;;4973000;28;20903;-71
2021/11/01 13:57:44;;;;;;;5.40;1.77;;;11.30;99.90;;;;;;4972968;28;20471;-71
2021/11/01 14:00:33;;;;;;;1.10;0.80;;;11.30;99.90;;;;;;4970961;28;20516;-70
2021/11/01 14:29:36;;;;;;;2.47;2.27;;;11.40;99.90;;;;;;4981368;28;20539;-72
2021/11/01 14:32:32;;;;;;;1.87;1.77;;;11.40;99.90;;;;;;4997535;28;20516;-72
2021/11/01 14:35:28;;;;;;;2.10;1.80;;;11.40;99.90;;;;;;4977065;28;20449;-71
2021/11/01 15:03:05;;;;;;;2.10;2.00;;;11.30;99.90;;;;;;4995216;28;20484;-70
2021/11/01 15:06:33;;;;;;;8.03;6.97;;;11.30;99.90;;;;;;4993724;28;20456;-71
2021/11/01 15:08:29;;;;;;;10.33;9.00;;;11.30;99.90;;;;;;4968462;28;20460;-71
2021/11/01 15:11:06;;;;;;;8.80;7.20;;;11.30;99.90;;;;;;4997616;28;20455;-71
2021/11/01 15:16:19;;;;;;;8.40;2.27;;;11.30;99.90;;;;;;4992915;28;20503;-71
2021/11/01 15:18:58;;;;;;;4.33;1.97;;;11.30;99.90;;;;;;4984347;28;20477;-71
2021/11/01 15:30:58;;;;;;;1.27;1.00;;;11.40;99.90;;;;;;4988617;28;21030;-71
2021/11/01 15:35:16;;;;;;;2.00;1.43;;;11.50;99.90;;;;;;4975159;28;20457;-71
2021/11/01 16:18:43;;;;;;;1.47;1.37;;;11.10;99.90;;;;;;4973802;28;20464;-72
2021/11/01 16:21:09;;;;;;;3.50;1.90;;;11.00;99.90;;;;;;4973454;28;20451;-73
2021/11/01 16:23:35;;;;;;;1.60;1.50;;;11.00;99.90;;;;;;4972821;28;20920;-73
2021/11/01 16:28:42;;;;;;;5.20;1.17;;;11.00;99.90;;;;;;4974624;28;20946;-75
2021/11/01 16:31:22;;;;;;;3.53;1.23;;;10.90;99.90;;;;;;4974079;28;20915;-75
2021/11/01 16:33:51;;;;;;;1.77;1.33;;;10.90;99.90;;;;;;4974256;28;20424;-75
2021/11/01 16:39:11;;;;;;;12.90;2.20;;;10.80;99.90;;;;;;4974306;28;20425;-75
2021/11/01 16:41:37;;;;;;;1.70;1.60;;;10.80;99.90;;;;;;4973958;28;20444;-75
2021/11/01 16:44:15;;;;;;;2.07;1.40;;;10.80;99.90;;;;;;4973446;28;20429;-75
2021/11/01 16:46:46;;;;;;;2.07;1.60;;;10.70;99.90;;;;;;4974381;28;20175;-74
2021/11/01 16:49:12;;;;;;;5.33;3.93;;;10.70;99.90;;;;;;4974052;28;20418;-75
2021/11/01 16:51:42;;;;;;;4.20;2.80;;;10.70;99.90;;;;;;4974188;28;20429;-75
2021/11/01 16:54:12;;;;;;;2.90;2.63;;;10.70;99.90;;;;;;4973782;28;20414;-75
2021/11/01 16:56:55;;;;;;;2.97;2.33;;;10.60;99.90;;;;;;4974009;28;20765;-75
2021/11/01 16:59:36;;;;;;;2.23;1.93;;;10.60;99.90;;;;;;4973749;28;20419;-75
2021/11/01 17:02:20;;;;;;;4.90;4.00;;;10.60;99.90;;;;;;4973645;28;20970;-75
2021/11/01 17:05:02;;;;;;;3.13;2.80;;;10.60;99.90;;;;;;4972669;28;20418;-75
2021/11/01 17:21:46;;;;;;;3.27;2.00;;;10.60;99.90;;;;;;4966818;28;20477;-74
2021/11/01 17:24:42;;;;;;;5.33;2.13;;;10.60;99.90;;;;;;4979108;28;20421;-74
2021/11/01 17:35:43;;;;;;;2.60;2.00;;;10.50;99.90;;;;;;4992785;28;20425;-74
2021/11/01 18:45:03;;;;;;;3.10;2.90;;;9.00;99.90;;;;;;4983597;28;20452;-74
2021/11/01 18:53:07;;;;;;;3.83;3.30;;;9.00;99.90;;;;;;4981309;28;20544;-74
2021/11/01 18:55:32;;;;;;;4.83;2.83;;;9.00;99.90;;;;;;4989578;28;20498;-74
2021/11/01 18:58:01;;;;;;;5.07;3.10;;;9.00;99.90;;;;;;4989615;28;20913;-74
2021/11/01 19:00:27;;;;;;;3.20;2.80;;;9.00;99.90;;;;;;4980755;28;20222;-74
2021/11/01 19:02:55;;;;;;;2.07;1.87;;;9.00;99.90;;;;;;4985938;28;20499;-73
2021/11/01 19:05:26;;;;;;;5.40;2.20;;;9.00;99.90;;;;;;4971699;28;20470;-74
2021/11/01 19:16:29;;;;;;;2.40;1.30;;;8.70;99.90;;;;;;4965002;28;20235;-73
2021/11/01 20:05:20;;;;;;;1.47;1.13;;;7.80;99.90;;;;;;4993751;28;20525;-73
2021/11/01 20:08:13;;;;;;;2.53;1.30;;;7.70;99.90;;;;;;4992093;28;20531;-73
2021/11/01 20:13:42;;;;;;;9.10;1.97;;;7.60;99.90;;;;;;4984953;28;20488;-75
2021/11/01 20:16:38;;;;;;;6.20;2.00;;;7.60;99.90;;;;;;4993398;28;20452;-74
2021/11/01 21:25:53;;;;;;;3.97;3.60;;;6.30;99.90;;;;;;4993204;28;20400;-75
2021/11/01 21:28:20;;;;;;;5.57;3.03;;;6.30;99.90;;;;;;4983346;28;20428;-75
2021/11/01 21:30:45;;;;;;;4.00;3.33;;;6.20;99.90;;;;;;4973351;28;20396;-75
2021/11/01 21:33:15;;;;;;;3.97;3.67;;;6.20;99.90;;;;;;4973050;28;20421;-75
2021/11/01 21:35:47;;;;;;;5.17;3.90;;;6.10;99.90;;;;;;4973389;28;20598;-75
2021/11/01 21:38:13;;;;;;;8.13;3.80;;;6.10;99.90;;;;;;4973230;28;21194;-75
2021/11/01 21:40:42;;;;;;;6.10;5.37;;;6.10;99.90;;;;;;4972866;28;20578;-75
2021/11/01 21:43:07;;;;;;;7.90;6.10;;;6.10;99.90;;;;;;4972742;28;20434;-75
2021/11/01 21:45:33;;;;;;;6.47;5.67;;;6.10;99.90;;;;;;4972473;28;20785;-75
2021/11/01 21:47:58;;;;;;;4.60;4.20;;;6.00;99.90;;;;;;4973235;28;20227;-75
2021/11/01 21:50:24;;;;;;;8.03;6.60;;;6.00;99.90;;;;;;4972947;28;20184;-75
2021/11/01 21:52:50;;;;;;;8.40;6.07;;;6.00;99.90;;;;;;4972813;28;20230;-75
2021/11/01 21:55:18;;;;;;;11.00;6.03;;;6.00;99.90;;;;;;4972869;28;20177;-75
2021/11/01 21:57:52;;;;;;;4.60;3.83;;;6.00;99.90;;;;;;4973123;28;20500;-75
2021/11/01 22:16:46;;;;;;;5.13;3.23;;;5.80;99.90;;;;;;4972803;28;20414;-75
2021/11/01 22:21:47;;;;;;;5.63;2.87;;;5.80;99.90;;;;;;4972856;28;20428;-75
2021/11/01 22:24:23;;;;;;;2.03;1.80;;;5.70;99.90;;;;;;4972367;28;20908;-75
2021/11/01 22:27:07;;;;;;;4.40;2.93;;;5.70;99.90;;;;;;4972894;28;20768;-75
2021/11/01 22:40:16;;;;;;;2.77;2.23;;;5.60;99.90;;;;;;4974642;28;20182;-75
2021/11/01 22:45:15;;;;;;;4.30;2.90;;;5.50;99.90;;;;;;4977088;28;20804;-76
2021/11/01 22:48:07;;;;;;;7.60;3.70;;;5.50;99.90;;;;;;4977233;28;20177;-75
2021/11/01 22:58:25;;;;;;;11.23;3.30;;;5.50;99.90;;;;;;4976692;28;20477;-75
2021/11/01 23:01:03;;;;;;;6.13;2.87;;;5.50;99.90;;;;;;4976273;28;20874;-75
2021/11/01 23:03:42;;;;;;;3.43;3.03;;;5.60;99.90;;;;;;4975874;28;20308;-75
2021/11/01 23:33:31;;;;;;;1.63;0.90;;;7.20;99.90;;;;;;4975740;28;20419;-75
2021/11/01 23:35:57;;;;;;;0.80;0.80;;;7.50;99.90;;;;;;4975562;28;20419;-75
2021/11/01 23:38:23;;;;;;;1.10;1.00;;;7.60;99.90;;;;;;4975266;28;20263;-75
2021/11/01 23:40:49;;;;;;;1.50;1.00;;;7.70;99.90;;;;;;4975390;28;20213;-76
2021/11/01 23:43:15;;;;;;;3.07;1.10;;;7.80;99.90;;;;;;4975169;28;20595;-75
2021/11/01 23:45:42;;;;;;;4.60;0.80;;;7.90;99.90;;;;;;4975358;28;20579;-75
2021/11/01 23:48:08;;;;;;;2.57;1.07;;;8.00;99.90;;;;;;4975232;28;20413;-75
2021/11/01 23:50:34;;;;;;;1.00;0.80;;;8.10;99.90;;;;;;4974020;28;20499;-76
2021/11/01 23:53:07;;;;;;;7.03;2.00;;;8.10;99.90;;;;;;4974388;28;20527;-76
2021/11/01 23:55:33;;;;;;;2.27;1.10;;;8.20;99.90;;;;;;4975182;28;20435;-75
2021/11/01 23:57:59;;;;;;;2.20;0.80;;;8.30;99.90;;;;;;4975156;28;20487;-75
